createdAt,value
2018-11-05T00:03:22.016Z,27.93
2018-11-05T00:07:24.871Z,26.80
2018-11-05T00:11:27.730Z,26.83
2018-11-05T00:15:30.582Z,27.67
2018-11-05T00:19:33.441Z,31.57
2018-11-05T00:23:36.339Z,30.53
2018-11-05T00:27:39.314Z,28.83
2018-11-05T00:31:42.394Z,26.13
2018-11-05T00:35:45.249Z,30.43
2018-11-05T00:39:48.090Z,25.07
2018-11-05T00:43:51.166Z,26.20
2018-11-05T00:47:54.034Z,24.03
2018-11-05T00:51:56.882Z,25.97
2018-11-05T00:55:59.755Z,27.13
2018-11-05T01:00:02.646Z,24.50
2018-11-05T01:04:05.545Z,22.17
2018-11-05T01:08:08.398Z,20.47
2018-11-05T01:12:11.247Z,24.63
2018-11-05T01:16:14.139Z,20.63
2018-11-05T01:20:17.191Z,19.80
2018-11-05T01:24:20.073Z,18.63
2018-11-05T01:28:22.920Z,19.20
2018-11-05T01:32:25.792Z,19.53
2018-11-05T01:36:28.634Z,19.20
2018-11-05T01:40:31.486Z,21.50
2018-11-05T01:44:34.543Z,21.60
2018-11-05T01:48:37.404Z,20.40
2018-11-05T01:52:40.680Z,19.20
2018-11-05T01:56:43.588Z,22.20
2018-11-05T02:00:46.474Z,26.40
2018-11-05T02:04:49.608Z,24.83
2018-11-05T02:08:52.454Z,24.53
2018-11-05T02:12:55.326Z,26.60
2018-11-05T02:16:58.174Z,26.40
2018-11-05T02:21:01.030Z,25.90
2018-11-05T02:25:04.120Z,21.27
2018-11-05T02:29:06.975Z,27.03
2018-11-05T02:33:10.088Z,19.70
2018-11-05T02:37:12.950Z,18.50
2018-11-05T02:41:15.798Z,19.20
2018-11-05T02:45:19.937Z,19.17
2018-11-05T02:49:22.986Z,19.10
2018-11-05T02:53:26.362Z,19.97
2018-11-05T02:57:29.409Z,20.50
2018-11-05T03:01:32.259Z,24.10
2018-11-05T03:05:35.126Z,24.23
2018-11-05T03:09:37.984Z,25.20
2018-11-05T03:13:40.866Z,26.37
2018-11-05T03:17:43.759Z,27.90
2018-11-05T03:21:46.562Z,24.80
2018-11-05T03:25:49.438Z,26.80
2018-11-05T03:29:52.491Z,29.33
2018-11-05T03:33:55.588Z,30.20
2018-11-05T03:37:58.442Z,23.60
2018-11-05T03:42:01.507Z,30.10
2018-11-05T03:46:04.584Z,22.70
2018-11-05T03:50:08.639Z,27.07
2018-11-05T03:54:11.494Z,21.57
2018-11-05T03:58:14.410Z,21.20
2018-11-05T04:02:17.251Z,21.63
2018-11-05T04:06:20.111Z,22.60
2018-11-05T04:10:22.978Z,22.73
2018-11-05T04:14:25.826Z,21.57
2018-11-05T04:18:28.878Z,22.40
2018-11-05T04:22:31.736Z,22.60
2018-11-05T04:30:50.851Z,23.33
2018-11-05T04:34:53.694Z,23.40
2018-11-05T04:38:56.552Z,26.47
2018-11-05T04:42:59.611Z,25.73
2018-11-05T04:47:02.466Z,26.10
2018-11-05T04:51:05.311Z,22.17
2018-11-05T04:55:08.387Z,27.90
2018-11-05T04:59:11.235Z,26.07
2018-11-05T05:03:14.170Z,28.97
2018-11-05T05:07:17.143Z,24.20
2018-11-05T05:11:19.995Z,23.43
2018-11-05T05:15:22.879Z,24.93
2018-11-05T05:19:25.743Z,28.70
2018-11-05T05:23:28.591Z,27.87
2018-11-05T05:27:31.648Z,25.93
2018-11-05T05:31:34.594Z,33.53
2018-11-05T05:35:37.459Z,28.00
2018-11-05T05:39:40.358Z,29.20
2018-11-05T05:43:43.226Z,29.70
2018-11-05T05:47:46.104Z,34.00
2018-11-05T05:51:48.966Z,29.40
2018-11-05T05:55:51.817Z,30.67
2018-11-05T05:59:54.727Z,33.43
2018-11-05T06:03:57.558Z,30.50
2018-11-05T06:08:00.419Z,34.27
2018-11-05T06:12:03.262Z,34.03
2018-11-05T06:16:06.328Z,35.90
2018-11-05T06:20:11.522Z,31.47
2018-11-05T06:24:14.687Z,32.40
2018-11-05T06:28:17.574Z,32.80
2018-11-05T06:32:20.427Z,35.50
2018-11-05T06:36:23.266Z,34.47
2018-11-05T06:40:26.125Z,33.83
2018-11-05T06:44:28.974Z,32.47
2018-11-05T06:48:31.874Z,33.67
2018-11-05T06:52:34.726Z,32.70
2018-11-05T06:56:37.575Z,37.40
2018-11-05T07:00:40.454Z,30.60
2018-11-05T07:04:43.314Z,36.27
2018-11-05T07:08:46.391Z,36.13
2018-11-05T07:12:49.251Z,32.83
2018-11-05T07:16:52.095Z,32.90
2018-11-05T07:20:54.958Z,30.80
2018-11-05T07:24:58.390Z,31.03
2018-11-05T07:29:01.234Z,27.17
2018-11-05T07:33:04.721Z,29.20
2018-11-05T07:37:07.557Z,29.63
2018-11-05T07:41:10.402Z,32.40
2018-11-05T07:45:18.019Z,34.20
2018-11-05T07:49:20.866Z,33.40
2018-11-05T07:53:23.754Z,34.70
2018-11-05T07:57:26.630Z,28.10
2018-11-05T08:01:29.487Z,30.60
2018-11-05T08:05:32.334Z,31.93
2018-11-05T08:09:35.195Z,30.70
2018-11-05T08:13:38.044Z,36.77
2018-11-05T08:17:41.491Z,32.20
2018-11-05T08:21:44.335Z,34.53
2018-11-05T08:25:47.191Z,32.30
2018-11-05T08:29:50.039Z,31.10
2018-11-05T08:33:52.933Z,34.47
2018-11-05T08:37:55.783Z,34.90
2018-11-05T08:41:58.844Z,32.70
2018-11-05T08:46:01.687Z,33.47
2018-11-05T08:50:04.646Z,32.90
2018-11-05T08:54:07.490Z,34.60
2018-11-05T08:58:10.376Z,35.87
2018-11-05T09:02:13.383Z,34.90
2018-11-05T09:06:16.925Z,29.60
2018-11-05T09:10:20.141Z,35.43
2018-11-05T09:14:22.839Z,33.97
2018-11-05T09:18:25.907Z,33.90
2018-11-05T09:22:28.763Z,40.07
2018-11-05T09:26:31.622Z,35.23
2018-11-05T09:30:34.483Z,38.83
2018-11-05T09:34:37.556Z,35.30
2018-11-05T09:38:40.454Z,37.00
2018-11-05T09:42:44.024Z,35.60
2018-11-05T09:46:46.815Z,36.47
2018-11-05T09:50:49.868Z,37.97
2018-11-05T09:54:52.707Z,34.17
2018-11-05T09:58:55.763Z,34.87
2018-11-05T10:03:00.900Z,43.37
2018-11-05T10:07:03.690Z,43.13
2018-11-05T10:11:06.880Z,43.17
2018-11-05T10:15:10.487Z,41.97
2018-11-05T10:19:13.350Z,42.40
2018-11-05T10:23:16.188Z,42.93
2018-11-05T10:27:19.043Z,41.93
2018-11-05T10:31:23.815Z,39.47
2018-11-05T10:35:32.210Z,39.87
2018-11-05T10:39:35.104Z,38.97
2018-11-05T10:43:38.202Z,37.70
2018-11-05T10:47:41.059Z,39.63
2018-11-05T10:51:43.955Z,47.40
2018-11-05T10:55:46.971Z,45.33
2018-11-05T10:59:49.830Z,39.07
2018-11-05T11:03:58.481Z,40.87
2018-11-05T11:08:02.017Z,38.90
2018-11-05T11:12:05.167Z,36.20
2018-11-05T11:16:08.028Z,38.80
2018-11-05T11:20:12.250Z,38.30
2018-11-05T11:24:15.338Z,35.63
2018-11-05T11:28:18.470Z,41.20
2018-11-05T11:32:21.246Z,38.97
2018-11-05T11:36:24.363Z,37.30
2018-11-05T11:40:27.174Z,37.67
2018-11-05T11:44:30.038Z,39.67
2018-11-05T11:48:32.898Z,38.23
2018-11-05T11:52:35.909Z,41.60
2018-11-05T11:56:38.731Z,38.80
2018-11-05T12:00:41.562Z,35.30
2018-11-05T12:04:44.656Z,40.40
2018-11-05T12:08:47.783Z,39.50
2018-11-05T12:12:50.654Z,36.60
2018-11-05T12:16:53.507Z,39.47
2018-11-05T12:20:56.583Z,34.63
2018-11-05T12:24:59.503Z,35.07
2018-11-05T12:29:02.322Z,37.70
2018-11-05T12:33:05.507Z,36.50
2018-11-05T12:37:08.427Z,40.23
2018-11-05T12:41:11.290Z,36.90
2018-11-05T12:45:14.207Z,35.03
2018-11-05T12:49:17.054Z,37.17
2018-11-05T12:53:20.123Z,34.50
2018-11-05T12:57:22.966Z,39.03
2018-11-05T13:01:25.850Z,34.03
2018-11-05T13:05:29.906Z,39.10
2018-11-05T13:09:32.991Z,38.10
2018-11-05T13:13:35.840Z,40.63
2018-11-05T13:17:39.342Z,36.60
2018-11-05T13:21:42.191Z,42.83
2018-11-05T13:25:45.059Z,43.07
2018-11-05T13:29:47.937Z,44.80
2018-11-05T13:33:50.871Z,47.97
2018-11-05T13:37:54.187Z,47.37
2018-11-05T13:41:56.847Z,49.13
2018-11-05T13:46:00.147Z,44.63
2018-11-05T13:50:02.733Z,47.87
2018-11-05T13:54:05.652Z,50.90
2018-11-05T13:58:08.502Z,49.30
2018-11-05T14:02:11.379Z,51.73
2018-11-05T14:06:14.222Z,51.13
2018-11-05T14:10:18.590Z,48.93
2018-11-05T14:14:21.444Z,50.37
2018-11-05T14:18:24.585Z,51.50
2018-11-05T14:22:27.415Z,52.30
2018-11-05T14:26:30.278Z,49.83
2018-11-05T14:30:33.153Z,56.20
2018-11-05T14:34:36.216Z,60.67
2018-11-05T14:38:39.185Z,51.67
2018-11-05T14:42:42.020Z,50.27
2018-11-05T14:46:45.049Z,58.40
2018-11-05T14:50:48.066Z,53.53
2018-11-05T14:54:50.766Z,57.00
2018-11-05T14:58:53.603Z,58.03
2018-11-05T15:02:57.132Z,65.00
2018-11-05T15:06:59.948Z,56.47
2018-11-05T15:11:03.039Z,58.93
2018-11-05T15:15:06.943Z,51.47
2018-11-05T15:19:10.194Z,54.10
2018-11-05T15:23:12.869Z,55.67
2018-11-05T15:27:15.744Z,58.30
2018-11-05T15:31:18.598Z,55.93
2018-11-05T15:35:21.563Z,61.50
2018-11-05T15:39:24.430Z,65.63
2018-11-05T15:43:27.299Z,58.00
2018-11-05T15:47:30.363Z,54.13
2018-11-05T15:51:33.359Z,57.70
2018-11-05T15:55:36.072Z,61.50
2018-11-05T15:59:38.933Z,64.50
2018-11-05T16:03:41.783Z,54.90
2018-11-05T16:07:44.942Z,52.83
2018-11-05T16:11:47.787Z,58.30
2018-11-05T16:15:50.868Z,57.77
2018-11-05T16:19:53.716Z,63.43
2018-11-05T16:23:56.579Z,57.03
2018-11-05T16:27:59.454Z,51.67
2018-11-05T16:32:02.616Z,57.77
2018-11-05T16:36:05.599Z,56.07
2018-11-05T16:40:09.654Z,52.33
2018-11-05T16:44:12.382Z,55.80
2018-11-05T16:48:15.255Z,54.60
2018-11-05T16:52:18.319Z,51.70
2018-11-05T16:56:21.387Z,53.93
2018-11-05T17:00:24.234Z,55.53
2018-11-05T17:04:27.098Z,53.03
2018-11-05T17:08:29.938Z,51.87
2018-11-05T17:12:32.800Z,55.23
2018-11-05T17:16:35.646Z,51.70
2018-11-05T17:20:38.522Z,52.57
2018-11-05T17:24:41.380Z,51.83
2018-11-05T17:28:44.447Z,50.47
2018-11-05T17:32:47.306Z,47.57
2018-11-05T17:36:50.580Z,49.00
2018-11-05T17:40:53.663Z,48.47
2018-11-05T17:44:56.522Z,53.47
2018-11-05T17:48:59.370Z,52.07
2018-11-05T17:53:02.223Z,53.30
2018-11-05T17:57:05.117Z,45.87
2018-11-05T18:01:07.985Z,46.03
2018-11-05T18:05:10.858Z,50.40
2018-11-05T18:09:13.974Z,53.33
2018-11-05T18:13:16.806Z,44.60
2018-11-05T18:17:19.738Z,46.07
2018-11-05T18:21:22.813Z,50.40
2018-11-05T18:25:25.703Z,52.97
2018-11-05T18:29:28.725Z,52.07
2018-11-05T18:33:31.580Z,46.70
2018-11-05T18:37:34.447Z,46.93
2018-11-05T18:41:37.450Z,47.13
2018-11-05T18:45:40.315Z,48.23
2018-11-05T18:49:43.175Z,48.30
2018-11-05T18:53:46.021Z,47.27
2018-11-05T18:57:48.883Z,44.37
2018-11-05T19:01:51.731Z,45.87
2018-11-05T19:05:54.799Z,48.57
2018-11-05T19:09:57.682Z,41.30
2018-11-05T19:14:00.593Z,40.67
2018-11-05T19:18:03.699Z,41.07
2018-11-05T19:22:06.725Z,42.90
2018-11-05T19:26:09.497Z,46.30
2018-11-05T19:30:15.220Z,44.93
2018-11-05T19:34:18.085Z,44.37
2018-11-05T19:38:20.895Z,41.70
2018-11-05T19:42:23.921Z,46.23
2018-11-05T19:46:26.863Z,45.13
2018-11-05T19:50:29.715Z,37.87
2018-11-05T19:54:32.779Z,49.27
2018-11-05T19:58:35.636Z,50.63
2018-11-05T20:02:38.496Z,44.43
2018-11-05T20:06:41.359Z,41.63
2018-11-05T20:10:44.229Z,39.37
2018-11-05T20:14:47.173Z,40.20
2018-11-05T20:18:49.966Z,41.40
2018-11-05T20:22:52.904Z,38.57
2018-11-05T20:26:55.914Z,41.77
2018-11-05T20:30:59.031Z,40.93
2018-11-05T20:35:01.835Z,43.43
2018-11-05T20:39:07.683Z,41.70
2018-11-05T20:43:10.567Z,37.57
2018-11-05T20:47:13.471Z,39.40
2018-11-05T20:51:16.430Z,37.90
2018-11-05T20:55:19.282Z,38.50
2018-11-05T20:59:22.181Z,44.30
2018-11-05T21:03:24.998Z,55.90
2018-11-05T21:07:27.884Z,49.20
2018-11-05T21:11:30.736Z,42.83
2018-11-05T21:15:33.606Z,41.70
2018-11-05T21:19:36.531Z,43.13
2018-11-05T21:23:39.324Z,41.33
2018-11-05T21:27:42.898Z,39.30
2018-11-05T21:31:45.756Z,37.30
2018-11-05T21:35:48.610Z,36.30
2018-11-05T21:39:51.470Z,39.50
2018-11-05T21:43:54.559Z,39.10
2018-11-05T21:47:57.631Z,40.33
2018-11-05T21:52:00.490Z,37.37
2018-11-05T21:56:03.354Z,38.57
2018-11-05T22:00:07.981Z,41.87
2018-11-05T22:04:11.095Z,33.40
2018-11-05T22:08:14.019Z,33.40
2018-11-05T22:12:17.075Z,33.40
2018-11-05T22:16:19.934Z,33.53
2018-11-05T22:20:22.790Z,33.43
2018-11-05T22:24:25.661Z,26.03
2018-11-05T22:28:28.510Z,29.33
2018-11-05T22:32:31.362Z,32.03
2018-11-05T22:36:34.460Z,29.70
2018-11-05T22:40:37.347Z,25.60
2018-11-05T22:44:40.198Z,21.23
2018-11-05T22:48:43.045Z,20.50
2018-11-05T22:52:45.907Z,15.10
2018-11-05T22:56:48.779Z,18.43
2018-11-05T23:00:57.158Z,21.40
2018-11-05T23:05:00.011Z,23.40
2018-11-05T23:09:02.890Z,26.90
2018-11-05T23:13:05.743Z,32.83
2018-11-05T23:17:08.706Z,35.03
2018-11-05T23:21:11.567Z,32.27
2018-11-05T23:25:14.487Z,32.27
2018-11-05T23:29:17.334Z,34.53
2018-11-05T23:33:20.247Z,32.10
2018-11-05T23:37:23.298Z,30.70
2018-11-05T23:41:26.131Z,26.57
2018-11-05T23:45:29.030Z,26.97
2018-11-05T23:49:32.177Z,31.00
2018-11-05T23:53:35.022Z,29.27
2018-11-05T23:57:37.917Z,25.17
